sensor_id;sensor_type;location;lat;lon;timestamp;pressure;altitude;pressure_sealevel;temperature;humidity
42859;BME280;28505;56.970;40.998;2024-01-30T00:00:18;100564.72;;;-2.81;100.00
42859;BME280;28505;56.970;40.998;2024-01-30T00:05:40;100582.31;;;-2.60;100.00
42859;BME280;28505;56.970;40.998;2024-01-30T00:11:02;100598.81;;;-2.58;100.00
42859;BME280;28505;56.970;40.998;2024-01-30T00:16:25;100600.09;;;-2.47;100.00
42859;BME280;28505;56.970;40.998;2024-01-30T00:21:50;100591.16;;;-2.46;100.00
42859;BME280;28505;56.970;40.998;2024-01-30T00:27:13;100584.09;;;-2.39;100.00
42859;BME280;28505;56.970;40.998;2024-01-30T00:32:36;100585.97;;;-2.33;100.00
42859;BME280;28505;56.970;40.998;2024-01-30T00:37:58;100589.19;;;-2.38;100.00
42859;BME280;28505;56.970;40.998;2024-01-30T00:43:21;100580.06;;;-2.35;100.00
42859;BME280;28505;56.970;40.998;2024-01-30T00:48:43;100571.44;;;-2.22;100.00
42859;BME280;28505;56.970;40.998;2024-01-30T00:54:05;100572.25;;;-2.22;100.00
42859;BME280;28505;56.970;40.998;2024-01-30T00:59:28;100568.91;;;-2.30;100.00
42859;BME280;28505;56.970;40.998;2024-01-30T01:04:51;100575.69;;;-2.21;100.00
42859;BME280;28505;56.970;40.998;2024-01-30T01:10:14;100579.94;;;-2.20;100.00
42859;BME280;28505;56.970;40.998;2024-01-30T01:15:38;100573.91;;;-2.14;100.00
42859;BME280;28505;56.970;40.998;2024-01-30T01:21:03;100580.41;;;-2.10;100.00
42859;BME280;28505;56.970;40.998;2024-01-30T01:26:26;100575.69;;;-2.21;100.00
42859;BME280;28505;56.970;40.998;2024-01-30T01:31:49;100579.63;;;-2.04;100.00
42859;BME280;28505;56.970;40.998;2024-01-30T01:37:11;100573.91;;;-2.14;100.00
42859;BME280;28505;56.970;40.998;2024-01-30T01:42:33;100557.81;;;-2.19;100.00
42859;BME280;28505;56.970;40.998;2024-01-30T01:47:55;100568.66;;;-2.07;100.00
42859;BME280;28505;56.970;40.998;2024-01-30T01:53:19;100571.13;;;-2.06;100.00
42859;BME280;28505;56.970;40.998;2024-01-30T01:58:44;100563.34;;;-2.14;100.00
42859;BME280;28505;56.970;40.998;2024-01-30T02:04:35;100535.91;;;-2.13;100.00
42859;BME280;28505;56.970;40.998;2024-01-30T02:09:58;100547.00;;;-2.31;100.00
42859;BME280;28505;56.970;40.998;2024-01-30T02:15:22;100556.03;;;-2.12;100.00
42859;BME280;28505;56.970;40.998;2024-01-30T02:20:45;100549.53;;;-2.09;100.00
42859;BME280;28505;56.970;40.998;2024-01-30T02:26:08;100534.91;;;-2.12;100.00
42859;BME280;28505;56.970;40.998;2024-01-30T02:31:31;100561.66;;;-1.80;100.00
42859;BME280;28505;56.970;40.998;2024-01-30T02:36:54;100547.59;;;-1.88;100.00
42859;BME280;28505;56.970;40.998;2024-01-30T02:42:16;100550.13;;;-1.66;100.00
42859;BME280;28505;56.970;40.998;2024-01-30T02:47:40;100558.47;;;-1.69;100.00
42859;BME280;28505;56.970;40.998;2024-01-30T02:53:02;100544.03;;;-1.67;100.00
42859;BME280;28505;56.970;40.998;2024-01-30T03:04:01;100558.72;;;-1.51;100.00
42859;BME280;28505;56.970;40.998;2024-01-30T03:09:23;100573.38;;;-1.42;100.00
42859;BME280;28505;56.970;40.998;2024-01-30T03:14:47;100573.00;;;-1.38;100.00
42859;BME280;28505;56.970;40.998;2024-01-30T03:20:09;100572.56;;;-1.49;100.00
42859;BME280;28505;56.970;40.998;2024-01-30T03:25:32;100578.31;;;-1.25;100.00
42859;BME280;28505;56.970;40.998;2024-01-30T03:30:54;100580.72;;;-1.44;100.00
42859;BME280;28505;56.970;40.998;2024-01-30T03:36:16;100579.09;;;-1.31;100.00
42859;BME280;28505;56.970;40.998;2024-01-30T03:41:41;100569.31;;;-1.37;100.00
42859;BME280;28505;56.970;40.998;2024-01-30T03:47:04;100584.38;;;-1.38;100.00
42859;BME280;28505;56.970;40.998;2024-01-30T03:52:27;100579.53;;;-1.28;100.00
42859;BME280;28505;56.970;40.998;2024-01-30T03:57:50;100569.94;;;-1.35;100.00
42859;BME280;28505;56.970;40.998;2024-01-30T04:03:23;100584.81;;;-1.28;100.00
42859;BME280;28505;56.970;40.998;2024-01-30T04:09:42;100554.69;;;-1.33;100.00
42859;BME280;28505;56.970;40.998;2024-01-30T04:15:05;100592.31;;;-1.31;100.00
42859;BME280;28505;56.970;40.998;2024-01-30T04:20:27;100580.97;;;-1.19;100.00
42859;BME280;28505;56.970;40.998;2024-01-30T04:25:49;100569.91;;;-1.49;100.00
42859;BME280;28505;56.970;40.998;2024-01-30T04:31:12;100585.00;;;-1.36;100.00
42859;BME280;28505;56.970;40.998;2024-01-30T04:36:35;100600.66;;;-1.34;100.00
42859;BME280;28505;56.970;40.998;2024-01-30T04:41:58;100576.81;;;-1.48;100.00
42859;BME280;28505;56.970;40.998;2024-01-30T04:47:21;100605.13;;;-1.35;100.00
42859;BME280;28505;56.970;40.998;2024-01-30T04:52:45;100608.81;;;-1.29;100.00
42859;BME280;28505;56.970;40.998;2024-01-30T04:58:10;100625.75;;;-1.17;100.00
42859;BME280;28505;56.970;40.998;2024-01-30T05:03:33;100614.75;;;-1.21;100.00
42859;BME280;28505;56.970;40.998;2024-01-30T05:08:56;100627.59;;;-1.17;100.00
42859;BME280;28505;56.970;40.998;2024-01-30T05:14:18;100630.44;;;-1.12;100.00
42859;BME280;28505;56.970;40.998;2024-01-30T05:19:43;100634.09;;;-1.20;100.00
42859;BME280;28505;56.970;40.998;2024-01-30T05:25:05;100656.13;;;-1.00;100.00
42859;BME280;28505;56.970;40.998;2024-01-30T05:30:28;100658.16;;;-0.95;100.00
42859;BME280;28505;56.970;40.998;2024-01-30T05:35:50;100667.09;;;-1.03;100.00
42859;BME280;28505;56.970;40.998;2024-01-30T05:41:22;100652.25;;;-1.04;100.00
42859;BME280;28505;56.970;40.998;2024-01-30T05:46:45;100688.28;;;-0.96;100.00
42859;BME280;28505;56.970;40.998;2024-01-30T05:52:07;100687.88;;;-1.00;100.00
42859;BME280;28505;56.970;40.998;2024-01-30T05:57:30;100670.41;;;-0.87;100.00
42859;BME280;28505;56.970;40.998;2024-01-30T06:02:55;100683.19;;;-1.11;100.00
42859;BME280;28505;56.970;40.998;2024-01-30T06:08:18;100698.09;;;-0.83;100.00
42859;BME280;28505;56.970;40.998;2024-01-30T06:13:41;100684.41;;;-1.07;100.00
42859;BME280;28505;56.970;40.998;2024-01-30T06:19:04;100672.22;;;-1.01;100.00
42859;BME280;28505;56.970;40.998;2024-01-30T06:24:27;100707.91;;;-0.77;100.00
42859;BME280;28505;56.970;40.998;2024-01-30T06:29:50;100704.22;;;-0.76;100.00
42859;BME280;28505;56.970;40.998;2024-01-30T06:35:12;100706.28;;;-0.78;100.00
42859;BME280;28505;56.970;40.998;2024-01-30T06:40:35;100696.47;;;-0.91;100.00
42859;BME280;28505;56.970;40.998;2024-01-30T06:45:59;100717.47;;;-0.76;100.00
42859;BME280;28505;56.970;40.998;2024-01-30T06:51:21;100696.06;;;-0.88;100.00
42859;BME280;28505;56.970;40.998;2024-01-30T06:56:43;100698.34;;;-0.78;100.00
42859;BME280;28505;56.970;40.998;2024-01-30T07:02:09;100738.50;;;-0.61;100.00
42859;BME280;28505;56.970;40.998;2024-01-30T07:07:33;100734.19;;;-0.56;100.00
42859;BME280;28505;56.970;40.998;2024-01-30T07:12:55;100745.84;;;-0.43;100.00
42859;BME280;28505;56.970;40.998;2024-01-30T07:18:18;100743.19;;;-0.43;100.00
42859;BME280;28505;56.970;40.998;2024-01-30T07:23:40;100771.75;;;-0.45;100.00
42859;BME280;28505;56.970;40.998;2024-01-30T07:29:03;100767.44;;;-0.47;100.00
42859;BME280;28505;56.970;40.998;2024-01-30T07:34:27;100755.44;;;-0.42;100.00
42859;BME280;28505;56.970;40.998;2024-01-30T07:39:50;100747.91;;;-0.45;100.00
42859;BME280;28505;56.970;40.998;2024-01-30T07:45:13;100778.91;;;-0.19;100.00
42859;BME280;28505;56.970;40.998;2024-01-30T07:50:35;100783.81;;;0.10;100.00
42859;BME280;28505;56.970;40.998;2024-01-30T07:55:58;100771.97;;;-0.27;100.00
42859;BME280;28505;56.970;40.998;2024-01-30T08:01:21;100777.66;;;-0.17;100.00
42859;BME280;28505;56.970;40.998;2024-01-30T08:06:44;100761.78;;;-0.04;100.00
42859;BME280;28505;56.970;40.998;2024-01-30T08:12:07;100769.53;;;0.05;100.00
42859;BME280;28505;56.970;40.998;2024-01-30T08:17:30;100756.88;;;-0.13;100.00
42859;BME280;28505;56.970;40.998;2024-01-30T08:22:52;100790.34;;;0.08;100.00
42859;BME280;28505;56.970;40.998;2024-01-30T08:28:15;100791.97;;;0.02;100.00
42859;BME280;28505;56.970;40.998;2024-01-30T08:33:40;100787.88;;;-0.14;100.00
42859;BME280;28505;56.970;40.998;2024-01-30T08:39:04;100795.44;;;0.09;100.00
42859;BME280;28505;56.970;40.998;2024-01-30T08:44:28;100794.84;;;0.34;100.00
42859;BME280;28505;56.970;40.998;2024-01-30T08:49:50;100786.25;;;-0.15;100.00
42859;BME280;28505;56.970;40.998;2024-01-30T08:55:14;100791.97;;;-0.05;100.00
42859;BME280;28505;56.970;40.998;2024-01-30T09:00:37;100800.13;;;0.01;100.00
42859;BME280;28505;56.970;40.998;2024-01-30T09:05:59;100809.09;;;0.13;100.00
42859;BME280;28505;56.970;40.998;2024-01-30T09:11:23;100793.41;;;0.25;100.00
42859;BME280;28505;56.970;40.998;2024-01-30T09:16:45;100795.66;;;0.08;100.00
42859;BME280;28505;56.970;40.998;2024-01-30T09:22:08;100810.94;;;0.32;100.00
42859;BME280;28505;56.970;40.998;2024-01-30T09:27:30;100813.19;;;0.29;100.00
42859;BME280;28505;56.970;40.998;2024-01-30T09:32:53;100824.00;;;0.40;100.00
42859;BME280;28505;56.970;40.998;2024-01-30T09:38:15;100811.56;;;0.21;100.00
42859;BME280;28505;56.970;40.998;2024-01-30T09:43:38;100811.97;;;0.31;100.00
42859;BME280;28505;56.970;40.998;2024-01-30T09:49:04;100826.44;;;0.22;100.00
42859;BME280;28505;56.970;40.998;2024-01-30T09:54:31;100826.66;;;0.14;100.00
42859;BME280;28505;56.970;40.998;2024-01-30T09:59:57;100841.34;;;0.23;100.00
42859;BME280;28505;56.970;40.998;2024-01-30T10:05:21;100825.44;;;0.16;100.00
42859;BME280;28505;56.970;40.998;2024-01-30T10:10:49;100844.19;;;0.08;100.00
42859;BME280;28505;56.970;40.998;2024-01-30T10:16:16;100817.00;;;-0.27;100.00
42859;BME280;28505;56.970;40.998;2024-01-30T10:21:39;100812.09;;;-0.30;100.00
42859;BME280;28505;56.970;40.998;2024-01-30T10:27:03;100823.97;;;-0.19;100.00
42859;BME280;28505;56.970;40.998;2024-01-30T10:32:25;100829.84;;;-0.24;100.00
42859;BME280;28505;56.970;40.998;2024-01-30T10:37:48;100831.28;;;-0.28;100.00
42859;BME280;28505;56.970;40.998;2024-01-30T10:43:13;100836.56;;;-0.35;100.00
42859;BME280;28505;56.970;40.998;2024-01-30T10:48:42;100858.16;;;-0.31;100.00
42859;BME280;28505;56.970;40.998;2024-01-30T10:54:09;100840.03;;;-0.34;100.00
42859;BME280;28505;56.970;40.998;2024-01-30T10:59:34;100844.50;;;-0.35;100.00
42859;BME280;28505;56.970;40.998;2024-01-30T11:04:58;100861.06;;;-0.26;100.00
42859;BME280;28505;56.970;40.998;2024-01-30T11:10:25;100862.25;;;-0.29;100.00
42859;BME280;28505;56.970;40.998;2024-01-30T11:15:48;100865.31;;;-0.25;100.00
42859;BME280;28505;56.970;40.998;2024-01-30T11:21:13;100871.84;;;-0.21;100.00
42859;BME280;28505;56.970;40.998;2024-01-30T11:26:36;100884.63;;;-0.38;100.00
42859;BME280;28505;56.970;40.998;2024-01-30T11:32:00;100871.19;;;-0.36;100.00
42859;BME280;28505;56.970;40.998;2024-01-30T11:37:25;100884.81;;;-0.39;100.00
42859;BME280;28505;56.970;40.998;2024-01-30T11:42:51;100883.03;;;-0.39;100.00
42859;BME280;28505;56.970;40.998;2024-01-30T11:48:13;100893.78;;;-0.47;100.00
42859;BME280;28505;56.970;40.998;2024-01-30T11:53:36;100909.63;;;-0.54;100.00
42859;BME280;28505;56.970;40.998;2024-01-30T11:58:59;100892.50;;;-0.58;100.00
42859;BME280;28505;56.970;40.998;2024-01-30T12:04:28;100906.19;;;-0.48;100.00
42859;BME280;28505;56.970;40.998;2024-01-30T12:09:54;100890.41;;;-0.69;100.00
42859;BME280;28505;56.970;40.998;2024-01-30T12:15:18;100904.47;;;-0.68;100.00
42859;BME280;28505;56.970;40.998;2024-01-30T12:20:43;100914.47;;;-0.64;100.00
42859;BME280;28505;56.970;40.998;2024-01-30T12:26:06;100913.63;;;-0.71;100.00
42859;BME280;28505;56.970;40.998;2024-01-30T12:31:32;100931.53;;;-0.73;100.00
42859;BME280;28505;56.970;40.998;2024-01-30T12:36:55;100930.28;;;-0.77;100.00
42859;BME280;28505;56.970;40.998;2024-01-30T12:42:20;100927.59;;;-0.84;100.00
42859;BME280;28505;56.970;40.998;2024-01-30T12:47:44;100933.25;;;-0.93;100.00
42859;BME280;28505;56.970;40.998;2024-01-30T12:53:07;100933.47;;;-0.88;100.00
42859;BME280;28505;56.970;40.998;2024-01-30T12:58:31;100935.50;;;-0.90;100.00
42859;BME280;28505;56.970;40.998;2024-01-30T13:04:00;100945.94;;;-1.10;100.00
42859;BME280;28505;56.970;40.998;2024-01-30T13:09:23;100916.97;;;-1.19;100.00
42859;BME280;28505;56.970;40.998;2024-01-30T13:14:46;100902.66;;;-1.31;100.00
42859;BME280;28505;56.970;40.998;2024-01-30T13:20:10;100912.13;;;-1.43;100.00
42859;BME280;28505;56.970;40.998;2024-01-30T13:25:33;100919.22;;;-1.44;100.00
42859;BME280;28505;56.970;40.998;2024-01-30T13:30:57;100952.06;;;-1.31;100.00
42859;BME280;28505;56.970;40.998;2024-01-30T13:36:21;100943.84;;;-1.65;100.00
42859;BME280;28505;56.970;40.998;2024-01-30T13:41:44;100931.56;;;-1.72;100.00
42859;BME280;28505;56.970;40.998;2024-01-30T13:47:07;100963.00;;;-1.62;100.00
42859;BME280;28505;56.970;40.998;2024-01-30T13:52:29;100973.13;;;-1.66;100.00
42859;BME280;28505;56.970;40.998;2024-01-30T13:57:59;100997.66;;;-1.72;100.00
42859;BME280;28505;56.970;40.998;2024-01-30T14:03:24;100971.09;;;-1.85;100.00
42859;BME280;28505;56.970;40.998;2024-01-30T14:08:47;100997.75;;;-1.80;100.00
42859;BME280;28505;56.970;40.998;2024-01-30T14:14:21;100992.84;;;-1.83;100.00
42859;BME280;28505;56.970;40.998;2024-01-30T14:19:43;100988.06;;;-1.95;100.00
42859;BME280;28505;56.970;40.998;2024-01-30T14:25:07;100996.41;;;-2.13;100.00
42859;BME280;28505;56.970;40.998;2024-01-30T14:30:29;101015.88;;;-1.99;100.00
42859;BME280;28505;56.970;40.998;2024-01-30T14:35:53;101019.50;;;-2.00;100.00
42859;BME280;28505;56.970;40.998;2024-01-30T14:41:16;101009.59;;;-2.13;100.00
42859;BME280;28505;56.970;40.998;2024-01-30T14:46:39;101030.06;;;-2.00;100.00
42859;BME280;28505;56.970;40.998;2024-01-30T14:52:01;101035.25;;;-1.92;100.00
42859;BME280;28505;56.970;40.998;2024-01-30T14:57:27;101019.59;;;-2.08;100.00
42859;BME280;28505;56.970;40.998;2024-01-30T15:02:51;101022.63;;;-2.11;100.00
42859;BME280;28505;56.970;40.998;2024-01-30T15:08:14;101036.28;;;-1.93;100.00
42859;BME280;28505;56.970;40.998;2024-01-30T15:13:37;101022.97;;;-2.14;100.00
42859;BME280;28505;56.970;40.998;2024-01-30T15:18:59;101037.63;;;-1.97;100.00
42859;BME280;28505;56.970;40.998;2024-01-30T15:24:22;101021.31;;;-2.00;100.00
42859;BME280;28505;56.970;40.998;2024-01-30T15:29:48;101028.72;;;-2.10;100.00
42859;BME280;28505;56.970;40.998;2024-01-30T15:35:12;101042.38;;;-2.07;100.00
42859;BME280;28505;56.970;40.998;2024-01-30T15:40:35;101047.41;;;-2.12;100.00
42859;BME280;28505;56.970;40.998;2024-01-30T15:45:59;101051.13;;;-2.06;100.00
42859;BME280;28505;56.970;40.998;2024-01-30T15:51:23;101055.22;;;-2.04;100.00
42859;BME280;28505;56.970;40.998;2024-01-30T15:56:49;101060.78;;;-1.99;100.00
42859;BME280;28505;56.970;40.998;2024-01-30T16:02:12;101047.75;;;-2.15;100.00
42859;BME280;28505;56.970;40.998;2024-01-30T16:07:38;101051.69;;;-2.11;100.00
42859;BME280;28505;56.970;40.998;2024-01-30T16:13:00;101068.63;;;-2.05;100.00
42859;BME280;28505;56.970;40.998;2024-01-30T16:18:23;101051.75;;;-2.19;100.00
42859;BME280;28505;56.970;40.998;2024-01-30T16:23:49;101060.16;;;-2.30;100.00
42859;BME280;28505;56.970;40.998;2024-01-30T16:29:12;101085.00;;;-2.10;100.00
42859;BME280;28505;56.970;40.998;2024-01-30T16:34:34;101090.28;;;-2.10;100.00
42859;BME280;28505;56.970;40.998;2024-01-30T16:39:57;101080.00;;;-2.20;100.00
42859;BME280;28505;56.970;40.998;2024-01-30T16:45:20;101088.03;;;-2.28;100.00
42859;BME280;28505;56.970;40.998;2024-01-30T16:50:42;101089.81;;;-2.43;100.00
42859;BME280;28505;56.970;40.998;2024-01-30T16:56:07;101114.84;;;-2.39;100.00
42859;BME280;28505;56.970;40.998;2024-01-30T17:01:30;101099.34;;;-2.57;100.00
42859;BME280;28505;56.970;40.998;2024-01-30T17:07:17;101117.41;;;-2.46;100.00
42859;BME280;28505;56.970;40.998;2024-01-30T17:13:05;101096.06;;;-2.59;100.00
42859;BME280;28505;56.970;40.998;2024-01-30T17:18:53;101115.50;;;-2.37;100.00
42859;BME280;28505;56.970;40.998;2024-01-30T17:24:16;101107.38;;;-2.50;100.00
42859;BME280;28505;56.970;40.998;2024-01-30T17:29:39;101109.63;;;-2.62;100.00
42859;BME280;28505;56.970;40.998;2024-01-30T17:35:01;101138.75;;;-2.55;100.00
42859;BME280;28505;56.970;40.998;2024-01-30T17:40:24;101134.84;;;-2.60;100.00
42859;BME280;28505;56.970;40.998;2024-01-30T17:45:47;101130.94;;;-2.87;100.00
42859;BME280;28505;56.970;40.998;2024-01-30T17:51:10;101126.91;;;-2.74;100.00
42859;BME280;28505;56.970;40.998;2024-01-30T17:56:32;101126.53;;;-2.71;100.00
42859;BME280;28505;56.970;40.998;2024-01-30T18:01:54;101125.25;;;-2.75;100.00
42859;BME280;28505;56.970;40.998;2024-01-30T18:07:17;101118.34;;;-2.99;100.00
42859;BME280;28505;56.970;40.998;2024-01-30T18:12:40;101111.72;;;-3.49;100.00
42859;BME280;28505;56.970;40.998;2024-01-30T18:18:04;101115.25;;;-3.73;100.00
42859;BME280;28505;56.970;40.998;2024-01-30T18:23:26;101140.09;;;-3.60;100.00
42859;BME280;28505;56.970;40.998;2024-01-30T18:28:49;101142.84;;;-3.14;100.00
42859;BME280;28505;56.970;40.998;2024-01-30T18:34:11;101146.78;;;-3.18;100.00
42859;BME280;28505;56.970;40.998;2024-01-30T18:39:35;101118.75;;;-3.42;100.00
42859;BME280;28505;56.970;40.998;2024-01-30T18:45:02;101145.03;;;-3.25;100.00
42859;BME280;28505;56.970;40.998;2024-01-30T18:50:25;101131.50;;;-3.22;100.00
42859;BME280;28505;56.970;40.998;2024-01-30T18:55:50;101132.84;;;-3.26;100.00
42859;BME280;28505;56.970;40.998;2024-01-30T19:01:13;101100.69;;;-3.53;100.00
42859;BME280;28505;56.970;40.998;2024-01-30T19:06:36;101133.88;;;-3.36;100.00
42859;BME280;28505;56.970;40.998;2024-01-30T19:11:58;101122.06;;;-3.40;100.00
42859;BME280;28505;56.970;40.998;2024-01-30T19:17:20;101136.47;;;-3.67;100.00
42859;BME280;28505;56.970;40.998;2024-01-30T19:22:43;101111.28;;;-4.09;100.00
42859;BME280;28505;56.970;40.998;2024-01-30T19:28:08;101139.63;;;-4.68;100.00
42859;BME280;28505;56.970;40.998;2024-01-30T19:33:31;101138.97;;;-5.03;100.00
42859;BME280;28505;56.970;40.998;2024-01-30T19:38:53;101152.78;;;-4.35;100.00
42859;BME280;28505;56.970;40.998;2024-01-30T19:44:16;101150.94;;;-4.10;100.00
42859;BME280;28505;56.970;40.998;2024-01-30T19:49:39;101166.94;;;-4.12;100.00
42859;BME280;28505;56.970;40.998;2024-01-30T19:55:02;101161.16;;;-4.07;100.00
42859;BME280;28505;56.970;40.998;2024-01-30T20:00:25;101146.63;;;-3.95;100.00
42859;BME280;28505;56.970;40.998;2024-01-30T20:05:48;101150.78;;;-4.17;100.00
42859;BME280;28505;56.970;40.998;2024-01-30T20:11:13;101159.41;;;-6.16;100.00
42859;BME280;28505;56.970;40.998;2024-01-30T20:16:41;101148.69;;;-5.96;100.00
42859;BME280;28505;56.970;40.998;2024-01-30T20:22:03;101149.75;;;-6.59;100.00
42859;BME280;28505;56.970;40.998;2024-01-30T20:27:28;101162.34;;;-6.80;100.00
42859;BME280;28505;56.970;40.998;2024-01-30T20:32:51;101154.25;;;-5.06;100.00
42859;BME280;28505;56.970;40.998;2024-01-30T20:38:15;101149.50;;;-5.53;100.00
42859;BME280;28505;56.970;40.998;2024-01-30T20:43:38;101157.53;;;-5.04;100.00
42859;BME280;28505;56.970;40.998;2024-01-30T20:49:00;101152.06;;;-5.27;100.00
42859;BME280;28505;56.970;40.998;2024-01-30T20:54:23;101146.28;;;-5.81;100.00
42859;BME280;28505;56.970;40.998;2024-01-30T20:59:45;101144.66;;;-5.74;100.00
42859;BME280;28505;56.970;40.998;2024-01-30T21:05:08;101145.78;;;-5.34;100.00
42859;BME280;28505;56.970;40.998;2024-01-30T21:10:31;101140.72;;;-5.28;100.00
42859;BME280;28505;56.970;40.998;2024-01-30T21:15:53;101146.88;;;-6.22;100.00
42859;BME280;28505;56.970;40.998;2024-01-30T21:21:16;101133.53;;;-6.98;100.00
42859;BME280;28505;56.970;40.998;2024-01-30T21:26:40;101148.66;;;-6.92;100.00
42859;BME280;28505;56.970;40.998;2024-01-30T21:32:02;101137.72;;;-6.70;100.00
42859;BME280;28505;56.970;40.998;2024-01-30T21:37:24;101143.91;;;-7.24;100.00
42859;BME280;28505;56.970;40.998;2024-01-30T21:42:47;101151.41;;;-7.12;100.00
42859;BME280;28505;56.970;40.998;2024-01-30T21:48:15;101139.41;;;-7.60;100.00
42859;BME280;28505;56.970;40.998;2024-01-30T21:53:37;101154.47;;;-5.84;100.00
42859;BME280;28505;56.970;40.998;2024-01-30T21:59:00;101114.56;;;-6.92;100.00
42859;BME280;28505;56.970;40.998;2024-01-30T22:04:37;101139.94;;;-6.57;100.00
42859;BME280;28505;56.970;40.998;2024-01-30T22:09:59;101132.84;;;-5.78;100.00
42859;BME280;28505;56.970;40.998;2024-01-30T22:15:23;101131.47;;;-5.91;100.00
42859;BME280;28505;56.970;40.998;2024-01-30T22:20:45;101134.84;;;-6.06;100.00
42859;BME280;28505;56.970;40.998;2024-01-30T22:26:07;101145.75;;;-5.93;100.00
42859;BME280;28505;56.970;40.998;2024-01-30T22:31:30;101135.25;;;-6.45;100.00
42859;BME280;28505;56.970;40.998;2024-01-30T22:36:55;101140.53;;;-7.17;100.00
42859;BME280;28505;56.970;40.998;2024-01-30T22:42:18;101156.34;;;-7.91;100.00
42859;BME280;28505;56.970;40.998;2024-01-30T22:47:40;101166.03;;;-8.02;100.00
42859;BME280;28505;56.970;40.998;2024-01-30T22:53:03;101144.72;;;-6.52;100.00
42859;BME280;28505;56.970;40.998;2024-01-30T22:58:25;101157.94;;;-7.16;100.00
42859;BME280;28505;56.970;40.998;2024-01-30T23:03:47;101165.88;;;-6.28;100.00
42859;BME280;28505;56.970;40.998;2024-01-30T23:09:10;101154.72;;;-6.04;100.00
42859;BME280;28505;56.970;40.998;2024-01-30T23:14:36;101160.81;;;-5.95;100.00
42859;BME280;28505;56.970;40.998;2024-01-30T23:19:59;101154.41;;;-6.71;100.00
42859;BME280;28505;56.970;40.998;2024-01-30T23:25:26;101139.28;;;-6.33;100.00
42859;BME280;28505;56.970;40.998;2024-01-30T23:30:49;101122.06;;;-6.79;100.00
42859;BME280;28505;56.970;40.998;2024-01-30T23:36:12;101154.72;;;-6.30;100.00
42859;BME280;28505;56.970;40.998;2024-01-30T23:41:34;101154.03;;;-6.32;100.00
42859;BME280;28505;56.970;40.998;2024-01-30T23:46:57;101138.56;;;-6.43;100.00
42859;BME280;28505;56.970;40.998;2024-01-30T23:52:19;101157.53;;;-7.21;100.00
42859;BME280;28505;56.970;40.998;2024-01-30T23:57:43;101157.22;;;-7.36;100.00
